sensor_id;sensor_type;location;lat;lon;timestamp;pressure;altitude;pressure_sealevel;temperature;humidity
10700;BME280;5401;41.986;21.452;2024-03-02T00:01:15;97869.50;;;12.01;96.31
10700;BME280;5401;41.986;21.452;2024-03-02T00:03:42;97866.47;;;11.97;95.60
10700;BME280;5401;41.986;21.452;2024-03-02T00:06:10;97857.25;;;11.93;96.36
10700;BME280;5401;41.986;21.452;2024-03-02T00:08:38;97853.28;;;11.84;96.44
10700;BME280;5401;41.986;21.452;2024-03-02T00:11:05;97845.69;;;11.81;96.33
10700;BME280;5401;41.986;21.452;2024-03-02T00:13:33;97848.97;;;11.83;96.47
10700;BME280;5401;41.986;21.452;2024-03-02T00:16:03;97829.63;;;11.70;95.94
10700;BME280;5401;41.986;21.452;2024-03-02T00:18:34;97853.88;;;11.86;96.56
10700;BME280;5401;41.986;21.452;2024-03-02T00:21:02;97848.38;;;11.81;97.04
10700;BME280;5401;41.986;21.452;2024-03-02T00:23:31;97855.97;;;11.84;96.73
10700;BME280;5401;41.986;21.452;2024-03-02T00:25:59;97836.25;;;11.68;96.78
10700;BME280;5401;41.986;21.452;2024-03-02T00:28:27;97838.84;;;11.74;96.19
10700;BME280;5401;41.986;21.452;2024-03-02T00:31:03;97853.28;;;11.84;96.19
10700;BME280;5401;41.986;21.452;2024-03-02T00:33:32;97856.91;;;11.78;96.95
10700;BME280;5401;41.986;21.452;2024-03-02T00:36:01;97785.03;;;11.35;96.32
10700;BME280;5401;41.986;21.452;2024-03-02T00:38:30;97851.06;;;11.70;96.37
10700;BME280;5401;41.986;21.452;2024-03-02T00:40:59;97868.44;;;11.79;96.29
10700;BME280;5401;41.986;21.452;2024-03-02T00:43:42;97845.34;;;11.67;96.71
10700;BME280;5401;41.986;21.452;2024-03-02T00:46:16;97864.84;;;11.74;95.99
10700;BME280;5401;41.986;21.452;2024-03-02T00:48:50;97857.25;;;11.71;96.71
10700;BME280;5401;41.986;21.452;2024-03-02T00:51:18;97867.84;;;11.77;96.39
10700;BME280;5401;41.986;21.452;2024-03-02T00:53:46;97858.41;;;11.75;96.30
10700;BME280;5401;41.986;21.452;2024-03-02T00:56:14;97850.13;;;11.65;97.06
10700;BME280;5401;41.986;21.452;2024-03-02T00:58:42;97858.41;;;11.75;96.78
10700;BME280;5401;41.986;21.452;2024-03-02T01:01:10;97859.47;;;11.74;96.48
10700;BME280;5401;41.986;21.452;2024-03-02T01:03:39;97846.47;;;11.59;96.71
10700;BME280;5401;41.986;21.452;2024-03-02T01:06:07;97847.19;;;11.55;97.07
10700;BME280;5401;41.986;21.452;2024-03-02T01:08:37;97851.75;;;11.54;97.35
10700;BME280;5401;41.986;21.452;2024-03-02T01:11:05;97856.88;;;11.56;97.13
10700;BME280;5401;41.986;21.452;2024-03-02T01:13:32;97830.84;;;11.45;97.59
10700;BME280;5401;41.986;21.452;2024-03-02T01:16:00;97849.28;;;11.53;97.17
10700;BME280;5401;41.986;21.452;2024-03-02T01:18:28;97854.19;;;11.56;97.44
10700;BME280;5401;41.986;21.452;2024-03-02T01:20:58;97847.78;;;11.57;97.11
10700;BME280;5401;41.986;21.452;2024-03-02T01:23:25;97853.28;;;11.62;96.85
10700;BME280;5401;41.986;21.452;2024-03-02T01:25:53;97857.94;;;11.66;96.81
10700;BME280;5401;41.986;21.452;2024-03-02T01:28:21;97859.34;;;11.69;97.18
10700;BME280;5401;41.986;21.452;2024-03-02T01:30:48;97837.84;;;11.57;96.90
10700;BME280;5401;41.986;21.452;2024-03-02T01:33:16;97848.16;;;11.72;97.29
10700;BME280;5401;41.986;21.452;2024-03-02T01:35:44;97852.81;;;11.76;97.14
10700;BME280;5401;41.986;21.452;2024-03-02T01:38:13;97857.13;;;11.77;97.33
10700;BME280;5401;41.986;21.452;2024-03-02T01:40:41;97843.38;;;11.74;96.68
10700;BME280;5401;41.986;21.452;2024-03-02T01:43:10;97845.09;;;11.79;96.52
10700;BME280;5401;41.986;21.452;2024-03-02T01:45:38;97846.16;;;11.78;97.42
10700;BME280;5401;41.986;21.452;2024-03-02T01:48:07;97850.16;;;11.76;96.59
10700;BME280;5401;41.986;21.452;2024-03-02T01:50:35;97843.97;;;11.76;97.29
10700;BME280;5401;41.986;21.452;2024-03-02T01:53:03;97842.31;;;11.75;97.34
10700;BME280;5401;41.986;21.452;2024-03-02T01:55:32;97848.50;;;11.75;97.14
10700;BME280;5401;41.986;21.452;2024-03-02T01:58:01;97843.97;;;11.76;96.97
10700;BME280;5401;41.986;21.452;2024-03-02T02:00:29;97837.91;;;11.80;97.25
10700;BME280;5401;41.986;21.452;2024-03-02T02:02:56;97842.22;;;11.81;96.72
10700;BME280;5401;41.986;21.452;2024-03-02T02:05:24;97838.81;;;11.85;96.99
10700;BME280;5401;41.986;21.452;2024-03-02T02:07:51;97838.59;;;11.87;97.33
10700;BME280;5401;41.986;21.452;2024-03-02T02:10:19;97840.47;;;11.86;96.88
10700;BME280;5401;41.986;21.452;2024-03-02T02:12:48;97844.91;;;11.92;96.63
10700;BME280;5401;41.986;21.452;2024-03-02T02:15:22;97842.22;;;11.92;96.48
10700;BME280;5401;41.986;21.452;2024-03-02T02:17:50;97845.50;;;11.94;96.89
10700;BME280;5401;41.986;21.452;2024-03-02T02:20:18;97845.50;;;11.94;97.06
10700;BME280;5401;41.986;21.452;2024-03-02T02:22:57;97841.75;;;11.95;96.32
10700;BME280;5401;41.986;21.452;2024-03-02T02:25:25;97844.19;;;11.97;96.88
10700;BME280;5401;41.986;21.452;2024-03-02T02:27:53;97835.13;;;11.98;96.51
10700;BME280;5401;41.986;21.452;2024-03-02T02:30:22;97843.16;;;11.98;96.02
10700;BME280;5401;41.986;21.452;2024-03-02T02:32:51;97828.22;;;11.90;96.57
10700;BME280;5401;41.986;21.452;2024-03-02T02:35:18;97806.28;;;11.71;96.15
10700;BME280;5401;41.986;21.452;2024-03-02T02:37:47;97834.28;;;11.86;96.40
10700;BME280;5401;41.986;21.452;2024-03-02T02:40:17;97836.72;;;11.87;96.63
10700;BME280;5401;41.986;21.452;2024-03-02T02:42:45;97838.59;;;11.87;96.26
10700;BME280;5401;41.986;21.452;2024-03-02T02:45:13;97838.38;;;11.88;97.05
10700;BME280;5401;41.986;21.452;2024-03-02T02:47:41;97846.28;;;11.95;96.76
10700;BME280;5401;41.986;21.452;2024-03-02T02:50:09;97843.84;;;11.93;96.77
10700;BME280;5401;41.986;21.452;2024-03-02T02:52:38;97843.97;;;11.98;96.53
10700;BME280;5401;41.986;21.452;2024-03-02T02:55:07;97846.88;;;11.97;96.61
10700;BME280;5401;41.986;21.452;2024-03-02T02:57:37;97852.84;;;11.99;96.28
10700;BME280;5401;41.986;21.452;2024-03-02T03:00:07;97848.63;;;12.03;96.22
10700;BME280;5401;41.986;21.452;2024-03-02T03:02:40;97848.63;;;12.03;95.58
10700;BME280;5401;41.986;21.452;2024-03-02T03:05:08;97844.06;;;12.03;95.34
10700;BME280;5401;41.986;21.452;2024-03-02T03:07:35;97852.72;;;12.05;95.56
10700;BME280;5401;41.986;21.452;2024-03-02T03:10:04;97850.84;;;12.06;96.38
10700;BME280;5401;41.986;21.452;2024-03-02T03:12:32;97847.34;;;12.05;95.91
10700;BME280;5401;41.986;21.452;2024-03-02T03:15:02;97844.66;;;12.05;95.88
10700;BME280;5401;41.986;21.452;2024-03-02T03:17:30;97852.94;;;12.04;95.65
10700;BME280;5401;41.986;21.452;2024-03-02T03:19:59;97853.91;;;11.98;96.24
10700;BME280;5401;41.986;21.452;2024-03-02T03:22:27;97848.75;;;11.96;95.71
10700;BME280;5401;41.986;21.452;2024-03-02T03:24:54;97854.56;;;11.93;95.89
10700;BME280;5401;41.986;21.452;2024-03-02T03:27:22;97846.63;;;11.87;96.52
10700;BME280;5401;41.986;21.452;2024-03-02T03:29:49;97863.53;;;11.87;96.97
10700;BME280;5401;41.986;21.452;2024-03-02T03:32:18;97862.50;;;11.88;96.66
10700;BME280;5401;41.986;21.452;2024-03-02T03:34:45;97858.75;;;11.89;96.60
10700;BME280;5401;41.986;21.452;2024-03-02T03:37:14;97857.97;;;11.89;96.07
10700;BME280;5401;41.986;21.452;2024-03-02T03:39:41;97865.19;;;11.88;96.99
10700;BME280;5401;41.986;21.452;2024-03-02T03:42:08;97860.19;;;11.92;97.08
10700;BME280;5401;41.986;21.452;2024-03-02T03:44:36;97828.91;;;11.75;96.90
10700;BME280;5401;41.986;21.452;2024-03-02T03:47:07;97859.72;;;11.95;96.82
10700;BME280;5401;41.986;21.452;2024-03-02T03:49:36;97861.69;;;11.99;96.39
10700;BME280;5401;41.986;21.452;2024-03-02T03:52:04;97852.94;;;11.92;96.29
10700;BME280;5401;41.986;21.452;2024-03-02T03:54:31;97855.88;;;12.02;96.66
10700;BME280;5401;41.986;21.452;2024-03-02T03:56:59;97850.50;;;12.02;96.86
10700;BME280;5401;41.986;21.452;2024-03-02T03:59:26;97851.31;;;12.03;96.72
10700;BME280;5401;41.986;21.452;2024-03-02T04:01:54;97838.72;;;12.03;97.34
10700;BME280;5401;41.986;21.452;2024-03-02T04:04:21;97836.84;;;12.04;96.13
10700;BME280;5401;41.986;21.452;2024-03-02T04:06:50;97849.44;;;12.03;96.95
10700;BME280;5401;41.986;21.452;2024-03-02T04:09:17;97838.34;;;12.00;96.30
10700;BME280;5401;41.986;21.452;2024-03-02T04:11:45;97845.25;;;11.96;97.38
10700;BME280;5401;41.986;21.452;2024-03-02T04:14:12;97846.06;;;11.96;96.82
10700;BME280;5401;41.986;21.452;2024-03-02T04:16:40;97845.25;;;11.96;97.16
10700;BME280;5401;41.986;21.452;2024-03-02T04:19:07;97847.38;;;11.94;97.24
10700;BME280;5401;41.986;21.452;2024-03-02T04:21:35;97837.66;;;11.93;96.94
10700;BME280;5401;41.986;21.452;2024-03-02T04:24:05;97840.94;;;11.95;97.00
10700;BME280;5401;41.986;21.452;2024-03-02T04:26:32;97841.16;;;11.93;96.74
10700;BME280;5401;41.986;21.452;2024-03-02T04:28:59;97842.59;;;11.96;97.82
10700;BME280;5401;41.986;21.452;2024-03-02T04:31:27;97848.75;;;11.96;97.38
10700;BME280;5401;41.986;21.452;2024-03-02T04:33:55;97842.59;;;11.96;97.01
10700;BME280;5401;41.986;21.452;2024-03-02T04:36:22;97844.78;;;11.99;97.71
10700;BME280;5401;41.986;21.452;2024-03-02T04:38:50;97850.16;;;11.99;97.15
10700;BME280;5401;41.986;21.452;2024-03-02T04:41:20;97848.28;;;11.99;97.03
10700;BME280;5401;41.986;21.452;2024-03-02T04:43:47;97845.59;;;11.99;97.20
10700;BME280;5401;41.986;21.452;2024-03-02T04:46:15;97855.28;;;12.00;97.16
10700;BME280;5401;41.986;21.452;2024-03-02T04:48:42;97855.50;;;11.99;97.88
10700;BME280;5401;41.986;21.452;2024-03-02T04:51:10;97850.16;;;11.99;97.05
10700;BME280;5401;41.986;21.452;2024-03-02T04:53:39;97786.59;;;11.54;97.65
10700;BME280;5401;41.986;21.452;2024-03-02T04:56:06;97857.84;;;11.95;97.51
10700;BME280;5401;41.986;21.452;2024-03-02T04:58:52;97858.75;;;11.89;97.87
10700;BME280;5401;41.986;21.452;2024-03-02T05:01:20;97858.19;;;11.87;97.55
10700;BME280;5401;41.986;21.452;2024-03-02T05:03:49;97855.75;;;11.86;97.92
10700;BME280;5401;41.986;21.452;2024-03-02T05:06:16;97859.25;;;11.86;98.37
10700;BME280;5401;41.986;21.452;2024-03-02T05:08:44;97865.19;;;11.88;98.04
10700;BME280;5401;41.986;21.452;2024-03-02T05:11:11;97861.44;;;11.89;98.50
10700;BME280;5401;41.986;21.452;2024-03-02T05:13:58;97867.66;;;11.90;97.48
10700;BME280;5401;41.986;21.452;2024-03-02T05:16:25;97864.72;;;11.91;97.61
10700;BME280;5401;41.986;21.452;2024-03-02T05:18:52;97864.72;;;11.91;97.96
10700;BME280;5401;41.986;21.452;2024-03-02T05:21:20;97862.03;;;11.91;98.02
10700;BME280;5401;41.986;21.452;2024-03-02T05:23:48;97863.19;;;11.95;98.28
10700;BME280;5401;41.986;21.452;2024-03-02T05:26:15;97864.03;;;11.96;97.34
10700;BME280;5401;41.986;21.452;2024-03-02T05:28:43;97870.66;;;11.93;97.50
10700;BME280;5401;41.986;21.452;2024-03-02T05:31:15;97865.06;;;11.95;98.45
10700;BME280;5401;41.986;21.452;2024-03-02T05:33:43;97864.03;;;11.96;97.74
10700;BME280;5401;41.986;21.452;2024-03-02T05:36:10;97837.31;;;11.78;98.46
10700;BME280;5401;41.986;21.452;2024-03-02T05:38:38;97870.81;;;11.98;97.94
10700;BME280;5401;41.986;21.452;2024-03-02T05:41:05;97868.56;;;11.95;97.77
10700;BME280;5401;41.986;21.452;2024-03-02T05:43:33;97878.25;;;11.96;97.52
10700;BME280;5401;41.986;21.452;2024-03-02T05:45:59;97881.53;;;11.98;97.36
10700;BME280;5401;41.986;21.452;2024-03-02T05:48:28;97885.84;;;11.99;98.19
10700;BME280;5401;41.986;21.452;2024-03-02T05:50:56;97887.47;;;12.00;97.73
10700;BME280;5401;41.986;21.452;2024-03-02T05:53:23;97890.16;;;12.00;98.15
10700;BME280;5401;41.986;21.452;2024-03-02T05:55:51;97897.16;;;12.01;98.05
10700;BME280;5401;41.986;21.452;2024-03-02T05:58:21;97894.69;;;12.00;97.87
10700;BME280;5401;41.986;21.452;2024-03-02T06:00:58;97891.69;;;11.96;97.71
10700;BME280;5401;41.986;21.452;2024-03-02T06:03:26;97897.84;;;11.97;97.97
10700;BME280;5401;41.986;21.452;2024-03-02T06:05:56;97900.91;;;12.00;97.52
10700;BME280;5401;41.986;21.452;2024-03-02T06:08:23;97908.94;;;12.00;97.23
10700;BME280;5401;41.986;21.452;2024-03-02T06:10:50;97909.97;;;11.99;97.25
10700;BME280;5401;41.986;21.452;2024-03-02T06:13:18;97902.75;;;12.00;97.03
10700;BME280;5401;41.986;21.452;2024-03-02T06:15:45;97906.84;;;12.02;97.68
10700;BME280;5401;41.986;21.452;2024-03-02T06:18:13;97906.38;;;12.05;97.71
10700;BME280;5401;41.986;21.452;2024-03-02T06:20:40;97897.03;;;12.08;97.21
10700;BME280;5401;41.986;21.452;2024-03-02T06:23:09;97898.09;;;12.18;97.64
10700;BME280;5401;41.986;21.452;2024-03-02T06:25:36;97910.13;;;12.27;97.85
10700;BME280;5401;41.986;21.452;2024-03-02T06:28:04;97907.53;;;12.32;96.81
10700;BME280;5401;41.986;21.452;2024-03-02T06:30:32;97912.22;;;12.36;97.11
10700;BME280;5401;41.986;21.452;2024-03-02T06:32:59;97900.19;;;12.27;96.91
10700;BME280;5401;41.986;21.452;2024-03-02T06:35:26;97906.03;;;12.36;96.31
10700;BME280;5401;41.986;21.452;2024-03-02T06:37:54;97911.06;;;12.32;96.86
10700;BME280;5401;41.986;21.452;2024-03-02T06:40:23;97908.97;;;12.34;96.36
10700;BME280;5401;41.986;21.452;2024-03-02T06:42:50;97920.03;;;12.38;97.42
10700;BME280;5401;41.986;21.452;2024-03-02T06:45:17;97913.94;;;12.42;97.26
10700;BME280;5401;41.986;21.452;2024-03-02T06:47:45;97898.44;;;12.33;96.97
10700;BME280;5401;41.986;21.452;2024-03-02T06:50:12;97924.25;;;12.56;96.92
10700;BME280;5401;41.986;21.452;2024-03-02T06:52:40;97930.28;;;12.63;96.73
10700;BME280;5401;41.986;21.452;2024-03-02T06:55:08;97923.97;;;12.69;96.01
10700;BME280;5401;41.986;21.452;2024-03-02T06:57:37;97933.91;;;12.80;95.92
10700;BME280;5401;41.986;21.452;2024-03-02T07:00:05;97936.81;;;12.90;95.59
10700;BME280;5401;41.986;21.452;2024-03-02T07:02:35;97934.13;;;13.01;95.49
10700;BME280;5401;41.986;21.452;2024-03-02T07:05:03;97944.22;;;13.22;94.40
10700;BME280;5401;41.986;21.452;2024-03-02T07:07:33;97930.50;;;13.79;93.67
10700;BME280;5401;41.986;21.452;2024-03-02T07:10:01;97938.06;;;14.26;92.94
10700;BME280;5401;41.986;21.452;2024-03-02T07:12:28;97919.81;;;14.65;90.97
10700;BME280;5401;41.986;21.452;2024-03-02T07:14:58;97903.56;;;15.19;89.86
10700;BME280;5401;41.986;21.452;2024-03-02T07:17:43;97941.66;;;15.96;87.66
10700;BME280;5401;41.986;21.452;2024-03-02T07:20:11;97932.44;;;16.18;85.45
10700;BME280;5401;41.986;21.452;2024-03-02T07:22:38;97937.25;;;16.47;83.95
10700;BME280;5401;41.986;21.452;2024-03-02T07:25:06;97945.63;;;16.86;83.55
10700;BME280;5401;41.986;21.452;2024-03-02T07:27:34;97951.63;;;17.49;82.23
10700;BME280;5401;41.986;21.452;2024-03-02T07:30:04;97944.78;;;18.17;80.64
10700;BME280;5401;41.986;21.452;2024-03-02T07:32:31;97944.22;;;18.89;79.01
10700;BME280;5401;41.986;21.452;2024-03-02T07:34:59;97911.28;;;19.35;77.54
10700;BME280;5401;41.986;21.452;2024-03-02T07:37:27;97938.09;;;19.99;75.52
10700;BME280;5401;41.986;21.452;2024-03-02T07:39:55;97945.06;;;20.48;73.80
10700;BME280;5401;41.986;21.452;2024-03-02T07:42:23;97945.19;;;20.94;72.47
10700;BME280;5401;41.986;21.452;2024-03-02T07:44:51;97938.69;;;20.95;70.85
10700;BME280;5401;41.986;21.452;2024-03-02T07:47:19;97947.00;;;20.80;70.34
10700;BME280;5401;41.986;21.452;2024-03-02T07:49:47;97952.19;;;20.77;70.35
10700;BME280;5401;41.986;21.452;2024-03-02T07:52:14;97948.88;;;20.80;69.41
10700;BME280;5401;41.986;21.452;2024-03-02T07:54:42;97939.13;;;20.79;69.37
10700;BME280;5401;41.986;21.452;2024-03-02T07:57:09;97943.50;;;20.75;68.72
10700;BME280;5401;41.986;21.452;2024-03-02T07:59:37;97957.03;;;20.85;68.74
10700;BME280;5401;41.986;21.452;2024-03-02T08:02:04;97956.66;;;20.63;68.08
10700;BME280;5401;41.986;21.452;2024-03-02T08:04:34;97933.25;;;20.34;68.12
10700;BME280;5401;41.986;21.452;2024-03-02T08:07:01;97955.47;;;20.41;67.71
10700;BME280;5401;41.986;21.452;2024-03-02T08:09:29;97960.44;;;20.29;67.78
10700;BME280;5401;41.986;21.452;2024-03-02T08:11:57;97970.31;;;20.15;67.48
10700;BME280;5401;41.986;21.452;2024-03-02T08:14:24;97965.47;;;20.12;67.29
10700;BME280;5401;41.986;21.452;2024-03-02T08:16:52;97966.66;;;20.35;67.11
10700;BME280;5401;41.986;21.452;2024-03-02T08:19:19;97973.28;;;20.57;66.47
10700;BME280;5401;41.986;21.452;2024-03-02T08:21:48;97973.44;;;20.75;66.36
10700;BME280;5401;41.986;21.452;2024-03-02T08:24:16;97963.97;;;20.68;65.77
10700;BME280;5401;41.986;21.452;2024-03-02T08:26:44;97968.41;;;20.54;65.50
10700;BME280;5401;41.986;21.452;2024-03-02T08:29:12;97958.88;;;20.56;65.52
10700;BME280;5401;41.986;21.452;2024-03-02T08:31:39;97975.75;;;20.58;65.06
10700;BME280;5401;41.986;21.452;2024-03-02T08:34:07;97978.34;;;20.40;64.49
10700;BME280;5401;41.986;21.452;2024-03-02T08:36:35;97977.94;;;20.18;64.84
10700;BME280;5401;41.986;21.452;2024-03-02T08:39:04;97971.75;;;20.08;64.98
10700;BME280;5401;41.986;21.452;2024-03-02T08:41:33;97972.94;;;19.92;64.73
10700;BME280;5401;41.986;21.452;2024-03-02T08:44:01;97974.59;;;19.78;64.98
10700;BME280;5401;41.986;21.452;2024-03-02T08:46:28;97975.97;;;19.81;64.96
10700;BME280;5401;41.986;21.452;2024-03-02T08:48:56;97981.63;;;19.89;64.68
10700;BME280;5401;41.986;21.452;2024-03-02T08:51:23;97976.72;;;19.96;64.20
10700;BME280;5401;41.986;21.452;2024-03-02T08:53:50;97952.81;;;19.30;63.84
10700;BME280;5401;41.986;21.452;2024-03-02T08:56:19;97972.44;;;19.03;64.46
10700;BME280;5401;41.986;21.452;2024-03-02T08:58:49;97987.09;;;18.77;64.77
10700;BME280;5401;41.986;21.452;2024-03-02T09:01:17;97992.25;;;18.69;65.39
10700;BME280;5401;41.986;21.452;2024-03-02T09:03:45;97985.19;;;18.73;65.72
10700;BME280;5401;41.986;21.452;2024-03-02T09:06:13;97963.22;;;18.74;65.85
10700;BME280;5401;41.986;21.452;2024-03-02T09:08:42;97974.34;;;18.68;65.12
10700;BME280;5401;41.986;21.452;2024-03-02T09:11:11;97976.25;;;18.62;65.15
10700;BME280;5401;41.986;21.452;2024-03-02T09:13:40;97978.72;;;18.44;64.68
10700;BME280;5401;41.986;21.452;2024-03-02T09:16:08;97967.31;;;18.23;64.54
10700;BME280;5401;41.986;21.452;2024-03-02T09:18:37;97978.97;;;18.18;65.20
10700;BME280;5401;41.986;21.452;2024-03-02T09:21:04;97972.16;;;18.11;64.96
10700;BME280;5401;41.986;21.452;2024-03-02T09:23:33;97964.06;;;18.30;65.09
10700;BME280;5401;41.986;21.452;2024-03-02T09:26:01;97970.84;;;18.62;65.12
10700;BME280;5401;41.986;21.452;2024-03-02T09:28:29;97976.25;;;18.72;64.67
10700;BME280;5401;41.986;21.452;2024-03-02T09:30:58;97961.31;;;18.85;64.56
10700;BME280;5401;41.986;21.452;2024-03-02T09:33:26;97945.84;;;19.00;64.07
10700;BME280;5401;41.986;21.452;2024-03-02T09:35:53;97967.97;;;19.36;64.00
10700;BME280;5401;41.986;21.452;2024-03-02T09:38:21;97971.03;;;19.25;63.42
10700;BME280;5401;41.986;21.452;2024-03-02T09:40:49;97972.66;;;19.21;62.76
10700;BME280;5401;41.986;21.452;2024-03-02T09:43:16;97971.56;;;19.22;63.27
10700;BME280;5401;41.986;21.452;2024-03-02T09:45:45;97966.06;;;19.37;62.75
10700;BME280;5401;41.986;21.452;2024-03-02T09:48:14;97975.75;;;19.67;62.28
10700;BME280;5401;41.986;21.452;2024-03-02T09:50:44;97969.03;;;19.55;61.88
10700;BME280;5401;41.986;21.452;2024-03-02T09:53:12;97975.75;;;19.67;61.87
10700;BME280;5401;41.986;21.452;2024-03-02T09:55:41;97966.50;;;19.68;61.61
10700;BME280;5401;41.986;21.452;2024-03-02T09:58:12;97976.53;;;19.73;61.72
10700;BME280;5401;41.986;21.452;2024-03-02T10:00:40;97979.53;;;19.66;61.80
10700;BME280;5401;41.986;21.452;2024-03-02T10:03:11;97958.63;;;19.72;61.38
10700;BME280;5401;41.986;21.452;2024-03-02T10:05:40;97963.34;;;20.00;60.96
10700;BME280;5401;41.986;21.452;2024-03-02T10:08:08;97968.06;;;20.32;61.04
10700;BME280;5401;41.986;21.452;2024-03-02T10:10:37;97909.13;;;20.23;60.18
10700;BME280;5401;41.986;21.452;2024-03-02T10:13:06;97954.47;;;20.65;59.90
10700;BME280;5401;41.986;21.452;2024-03-02T10:15:35;97958.50;;;20.73;59.50
10700;BME280;5401;41.986;21.452;2024-03-02T10:18:04;97937.66;;;20.86;59.69
10700;BME280;5401;41.986;21.452;2024-03-02T10:20:31;97932.53;;;20.85;58.98
10700;BME280;5401;41.986;21.452;2024-03-02T10:23:11;97954.66;;;21.02;58.61
10700;BME280;5401;41.986;21.452;2024-03-02T10:25:39;97913.50;;;20.80;58.72
10700;BME280;5401;41.986;21.452;2024-03-02T10:28:06;97908.16;;;20.70;58.67
10700;BME280;5401;41.986;21.452;2024-03-02T10:30:34;97916.31;;;20.70;58.49
10700;BME280;5401;41.986;21.452;2024-03-02T10:33:02;97920.63;;;20.43;58.30
10700;BME280;5401;41.986;21.452;2024-03-02T10:35:30;97894.75;;;20.17;58.80
10700;BME280;5401;41.986;21.452;2024-03-02T10:37:59;97939.03;;;20.61;57.92
10700;BME280;5401;41.986;21.452;2024-03-02T10:40:28;97927.47;;;20.74;57.74
10700;BME280;5401;41.986;21.452;2024-03-02T10:42:55;97929.31;;;20.78;58.13
10700;BME280;5401;41.986;21.452;2024-03-02T10:45:24;97927.03;;;20.90;57.33
10700;BME280;5401;41.986;21.452;2024-03-02T10:47:52;97922.78;;;20.79;57.57
10700;BME280;5401;41.986;21.452;2024-03-02T10:50:20;97913.66;;;20.65;57.76
10700;BME280;5401;41.986;21.452;2024-03-02T10:52:47;97914.72;;;20.69;57.57
10700;BME280;5401;41.986;21.452;2024-03-02T10:55:16;97911.47;;;20.67;57.22
10700;BME280;5401;41.986;21.452;2024-03-02T10:57:51;97910.56;;;20.43;57.48
10700;BME280;5401;41.986;21.452;2024-03-02T11:00:20;97893.59;;;20.28;57.55
10700;BME280;5401;41.986;21.452;2024-03-02T11:02:52;97899.56;;;20.25;57.74
10700;BME280;5401;41.986;21.452;2024-03-02T11:05:27;97891.03;;;20.08;57.46
10700;BME280;5401;41.986;21.452;2024-03-02T11:07:59;97886.47;;;19.99;57.61
10700;BME280;5401;41.986;21.452;2024-03-02T11:10:33;97899.53;;;19.97;57.31
10700;BME280;5401;41.986;21.452;2024-03-02T11:13:05;97883.63;;;19.76;57.47
10700;BME280;5401;41.986;21.452;2024-03-02T11:15:35;97875.56;;;19.56;57.34
10700;BME280;5401;41.986;21.452;2024-03-02T11:18:04;97882.44;;;19.39;57.84
10700;BME280;5401;41.986;21.452;2024-03-02T11:20:36;97882.03;;;19.17;57.43
10700;BME280;5401;41.986;21.452;2024-03-02T11:23:06;97886.38;;;19.13;57.74
10700;BME280;5401;41.986;21.452;2024-03-02T11:25:34;97874.47;;;18.94;58.18
10700;BME280;5401;41.986;21.452;2024-03-02T11:28:04;97880.75;;;18.85;58.36
10700;BME280;5401;41.986;21.452;2024-03-02T11:30:51;97876.69;;;18.83;58.53
10700;BME280;5401;41.986;21.452;2024-03-02T11:33:23;97866.66;;;18.83;58.18
10700;BME280;5401;41.986;21.452;2024-03-02T11:35:53;97848.22;;;18.75;58.07
10700;BME280;5401;41.986;21.452;2024-03-02T11:38:21;97862.03;;;18.84;57.99
10700;BME280;5401;41.986;21.452;2024-03-02T11:40:48;97874.78;;;18.83;58.39
10700;BME280;5401;41.986;21.452;2024-03-02T11:43:18;97869.66;;;18.72;58.22
10700;BME280;5401;41.986;21.452;2024-03-02T11:45:46;97865.09;;;18.62;58.62
10700;BME280;5401;41.986;21.452;2024-03-02T11:48:15;97862.06;;;18.74;58.76
10700;BME280;5401;41.986;21.452;2024-03-02T11:50:46;97859.59;;;18.82;58.29
10700;BME280;5401;41.986;21.452;2024-03-02T11:53:15;97859.28;;;18.98;58.18
10700;BME280;5401;41.986;21.452;2024-03-02T11:55:43;97846.22;;;19.10;57.96
10700;BME280;5401;41.986;21.452;2024-03-02T11:58:12;97830.47;;;19.17;57.45
10700;BME280;5401;41.986;21.452;2024-03-02T12:00:42;97850.22;;;19.28;57.50
10700;BME280;5401;41.986;21.452;2024-03-02T12:03:16;97849.66;;;19.30;57.15
10700;BME280;5401;41.986;21.452;2024-03-02T12:05:48;97828.25;;;19.29;57.53
10700;BME280;5401;41.986;21.452;2024-03-02T12:08:16;97793.31;;;19.13;57.07
10700;BME280;5401;41.986;21.452;2024-03-02T12:10:56;97814.94;;;19.28;56.62
10700;BME280;5401;41.986;21.452;2024-03-02T12:13:23;97829.94;;;19.58;56.88
10700;BME280;5401;41.986;21.452;2024-03-02T12:15:55;97820.47;;;19.56;56.22
10700;BME280;5401;41.986;21.452;2024-03-02T12:18:23;97836.06;;;19.78;56.67
10700;BME280;5401;41.986;21.452;2024-03-02T12:20:51;97830.56;;;19.88;56.27
10700;BME280;5401;41.986;21.452;2024-03-02T12:23:23;97831.31;;;19.99;55.66
10700;BME280;5401;41.986;21.452;2024-03-02T12:25:51;97822.38;;;19.93;55.72
10700;BME280;5401;41.986;21.452;2024-03-02T12:28:19;97827.91;;;19.78;55.53
10700;BME280;5401;41.986;21.452;2024-03-02T12:30:47;97821.00;;;19.58;55.50
10700;BME280;5401;41.986;21.452;2024-03-02T12:33:17;97817.28;;;19.44;56.28
10700;BME280;5401;41.986;21.452;2024-03-02T12:35:45;97826.44;;;19.53;55.85
10700;BME280;5401;41.986;21.452;2024-03-02T12:38:12;97831.66;;;19.44;55.96
10700;BME280;5401;41.986;21.452;2024-03-02T12:40:41;97819.78;;;19.35;55.73
10700;BME280;5401;41.986;21.452;2024-03-02T12:43:09;97800.50;;;19.32;55.69
10700;BME280;5401;41.986;21.452;2024-03-02T12:45:37;97819.19;;;19.38;55.80
10700;BME280;5401;41.986;21.452;2024-03-02T12:48:05;97797.00;;;19.27;55.92
10700;BME280;5401;41.986;21.452;2024-03-02T12:50:34;97818.41;;;19.38;55.52
10700;BME280;5401;41.986;21.452;2024-03-02T12:53:02;97810.75;;;19.45;55.59
10700;BME280;5401;41.986;21.452;2024-03-02T12:55:30;97818.06;;;19.49;55.45
10700;BME280;5401;41.986;21.452;2024-03-02T12:57:57;97819.34;;;19.57;55.27
10700;BME280;5401;41.986;21.452;2024-03-02T13:00:25;97813.13;;;19.56;54.96
10700;BME280;5401;41.986;21.452;2024-03-02T13:02:52;97794.00;;;19.33;55.14
10700;BME280;5401;41.986;21.452;2024-03-02T13:05:21;97824.91;;;19.37;55.12
10700;BME280;5401;41.986;21.452;2024-03-02T13:07:51;97822.88;;;19.14;55.41